Time;durP1;ratioP1;P1;durP2;ratioP2;P2;SDS_P1;SDS_P2;PMS_P1;PMS_P2;Temp;Humidity;BMP_temperature;BMP_pressure;BME280_temperature;BME280_humidity;BME280_pressure;Samples;Min_cycle;Max_cycle;Signal;HPM_P1;HPM_P2
2022/04/03 00:01:01;;;;;;;6.28;2.80;;;-2.90;99.90;;;;;;4933338;29;20472;-87
2022/04/03 00:03:30;;;;;;;5.85;2.88;;;-2.90;99.90;;;;;;4908132;29;20463;-87
2022/04/03 00:05:58;;;;;;;7.47;3.30;;;-3.00;99.90;;;;;;4932113;29;20414;-87
2022/04/03 00:08:28;;;;;;;5.28;2.70;;;-2.90;99.90;;;;;;4933605;29;20410;-88
2022/04/03 00:10:55;;;;;;;6.55;2.60;;;-2.90;99.90;;;;;;4933614;29;20445;-88
2022/04/03 00:13:23;;;;;;;5.90;2.72;;;-3.00;99.90;;;;;;4914828;29;20482;-88
2022/04/03 00:15:51;;;;;;;6.32;2.90;;;-3.10;99.90;;;;;;4900572;29;20408;-87
2022/04/03 00:18:19;;;;;;;5.73;2.93;;;-3.10;99.90;;;;;;4938998;29;20397;-86
2022/04/03 00:20:49;;;;;;;5.22;2.60;;;-3.10;99.90;;;;;;4918168;29;20421;-88
2022/04/03 00:23:16;;;;;;;5.80;2.63;;;-3.10;99.90;;;;;;4931321;29;20410;-87
2022/04/03 00:25:44;;;;;;;5.45;2.88;;;-3.10;99.90;;;;;;4917717;29;20481;-88
2022/04/03 00:28:12;;;;;;;4.82;2.50;;;-3.10;99.90;;;;;;4933931;29;20398;-87
2022/04/03 00:30:42;;;;;;;5.97;2.73;;;-3.10;99.90;;;;;;4933359;29;20413;-86
2022/04/03 00:33:11;;;;;;;7.88;2.90;;;-3.20;99.90;;;;;;4934803;29;20422;-87
2022/04/03 00:35:39;;;;;;;6.75;2.47;;;-3.20;99.90;;;;;;4945922;29;20452;-88
2022/04/03 00:38:08;;;;;;;4.70;2.47;;;-3.20;99.90;;;;;;4930202;29;20438;-88
2022/04/03 00:40:36;;;;;;;7.68;2.88;;;-3.30;99.90;;;;;;4917828;29;20413;-87
2022/04/03 00:43:04;;;;;;;5.75;2.83;;;-3.20;99.90;;;;;;4934355;29;20501;-87
2022/04/03 00:45:31;;;;;;;4.45;2.50;;;-3.20;99.90;;;;;;4933624;29;20398;-88
2022/04/03 00:48:00;;;;;;;4.78;2.63;;;-3.30;99.90;;;;;;4934616;29;20434;-87
2022/04/03 00:50:27;;;;;;;5.20;2.70;;;-3.40;99.90;;;;;;4930375;29;21070;-88
2022/04/03 00:52:55;;;;;;;6.38;2.67;;;-3.30;99.90;;;;;;4928577;29;20448;-87
2022/04/03 00:55:23;;;;;;;5.88;2.83;;;-3.30;99.90;;;;;;4933184;29;20417;-88
2022/04/03 00:57:51;;;;;;;4.45;2.30;;;-3.30;99.90;;;;;;4932959;29;20943;-88
2022/04/03 01:00:18;;;;;;;7.22;2.53;;;-3.20;99.90;;;;;;4928896;29;20414;-88
2022/04/03 01:02:46;;;;;;;5.20;2.50;;;-3.30;99.90;;;;;;4942737;29;20413;-88
2022/04/03 01:05:15;;;;;;;5.53;2.60;;;-3.30;99.90;;;;;;4936833;29;20921;-88
2022/04/03 01:07:43;;;;;;;4.65;2.38;;;-3.30;99.90;;;;;;4941339;29;20437;-88
2022/04/03 01:10:11;;;;;;;7.55;2.80;;;-3.40;99.90;;;;;;4919463;29;20397;-88
2022/04/03 01:12:45;;;;;;;4.82;2.60;;;-3.40;99.90;;;;;;4936947;29;20500;-89
2022/04/03 01:15:19;;;;;;;4.72;2.30;;;-3.50;99.90;;;;;;4923436;29;20440;-88
2022/04/03 01:17:47;;;;;;;6.60;2.55;;;-3.50;99.90;;;;;;4920635;29;20434;-87
2022/04/03 01:20:15;;;;;;;4.88;2.33;;;-3.40;99.90;;;;;;4940652;29;20419;-87
2022/04/03 01:22:42;;;;;;;6.78;3.00;;;-3.60;99.90;;;;;;4925871;29;20494;-88
2022/04/03 01:25:10;;;;;;;5.78;2.50;;;-3.70;99.90;;;;;;4936701;29;20494;-88
2022/04/03 01:27:39;;;;;;;3.90;2.53;;;-3.70;99.90;;;;;;4937186;29;20397;-88
2022/04/03 01:30:08;;;;;;;5.10;2.60;;;-3.60;99.90;;;;;;4920976;29;20525;-87
2022/04/03 01:32:35;;;;;;;5.75;2.53;;;-3.50;99.90;;;;;;4920880;29;20975;-88
2022/04/03 01:35:04;;;;;;;5.05;2.40;;;-3.60;99.90;;;;;;4932625;29;20410;-87
2022/04/03 01:37:32;;;;;;;3.88;2.25;;;-3.60;99.90;;;;;;4936423;29;20412;-88
2022/04/03 01:40:00;;;;;;;4.40;2.78;;;-3.60;99.90;;;;;;4932983;29;20479;-88
2022/04/03 01:42:28;;;;;;;5.07;2.75;;;-3.60;99.90;;;;;;4915415;29;20439;-88
2022/04/03 01:44:55;;;;;;;6.10;2.72;;;-3.60;99.90;;;;;;4933340;29;20834;-88
2022/04/03 01:47:24;;;;;;;5.85;2.67;;;-3.60;99.90;;;;;;4920692;29;20410;-88
2022/04/03 01:49:52;;;;;;;4.50;2.80;;;-3.60;99.90;;;;;;4937620;29;20406;-88
2022/04/03 01:52:21;;;;;;;4.88;2.83;;;-3.80;99.90;;;;;;4936055;29;20946;-88
2022/04/03 01:54:48;;;;;;;5.45;3.03;;;-3.70;99.90;;;;;;4920330;29;20631;-87
2022/04/03 01:57:16;;;;;;;6.47;3.10;;;-3.80;99.90;;;;;;4936449;29;20409;-88
2022/04/03 01:59:44;;;;;;;4.72;2.70;;;-3.80;99.90;;;;;;4920614;29;20481;-88
2022/04/03 02:02:12;;;;;;;5.68;2.88;;;-3.80;99.90;;;;;;4933995;29;20417;-88
2022/04/03 02:04:39;;;;;;;4.90;2.78;;;-3.80;99.90;;;;;;4936225;29;20446;-87
2022/04/03 02:07:07;;;;;;;5.78;2.70;;;-3.90;99.90;;;;;;4934105;29;20430;-88
2022/04/03 02:09:35;;;;;;;5.13;2.70;;;-3.90;99.90;;;;;;4917016;29;20403;-89
2022/04/03 02:12:04;;;;;;;5.00;2.60;;;-3.90;99.90;;;;;;4931757;29;20980;-88
2022/04/03 02:14:32;;;;;;;5.37;2.50;;;-4.10;99.90;;;;;;4935166;29;20413;-88
2022/04/03 02:17:00;;;;;;;4.90;2.80;;;-4.10;99.90;;;;;;4919923;29;20457;-86
2022/04/03 02:19:27;;;;;;;4.57;2.63;;;-4.10;99.90;;;;;;4936119;29;20456;-87
2022/04/03 02:21:55;;;;;;;5.53;2.60;;;-4.10;99.90;;;;;;4916339;29;20411;-88
2022/04/03 02:24:23;;;;;;;4.93;2.57;;;-4.10;99.90;;;;;;4932704;29;20418;-88
2022/04/03 02:26:51;;;;;;;5.72;2.60;;;-4.00;99.90;;;;;;4936240;29;20653;-88
2022/04/03 02:29:18;;;;;;;5.43;2.88;;;-4.10;99.90;;;;;;4932729;29;21176;-87
2022/04/03 02:31:46;;;;;;;5.70;2.90;;;-4.00;99.90;;;;;;4935362;29;20499;-87
2022/04/03 02:34:14;;;;;;;5.43;2.65;;;-3.90;99.90;;;;;;4935219;29;20414;-88
2022/04/03 02:36:43;;;;;;;4.63;2.78;;;-4.10;99.90;;;;;;4929176;29;20461;-87
2022/04/03 02:39:14;;;;;;;6.27;3.00;;;-4.10;99.90;;;;;;4918575;29;20944;-88
2022/04/03 02:41:42;;;;;;;6.20;2.80;;;-4.20;99.90;;;;;;4935083;29;20410;-88
2022/04/03 02:44:10;;;;;;;5.35;2.70;;;-4.20;99.90;;;;;;4934920;29;21001;-88
2022/04/03 02:46:38;;;;;;;5.63;2.72;;;-4.20;99.90;;;;;;4934994;29;20934;-88
2022/04/03 02:49:08;;;;;;;6.13;2.92;;;-4.20;99.90;;;;;;4920019;29;20397;-88
2022/04/03 02:51:39;;;;;;;5.38;2.83;;;-4.30;99.90;;;;;;4934974;29;20504;-88
2022/04/03 02:54:07;;;;;;;5.78;2.80;;;-4.20;99.90;;;;;;4919190;29;20418;-89
2022/04/03 02:56:35;;;;;;;5.28;2.72;;;-4.20;99.90;;;;;;4935459;29;20402;-87
2022/04/03 02:59:02;;;;;;;5.68;3.08;;;-4.40;99.90;;;;;;4908532;29;20510;-88
2022/04/03 03:01:30;;;;;;;4.55;2.92;;;-4.40;99.90;;;;;;4934311;29;20453;-87
2022/04/03 03:03:58;;;;;;;4.90;2.92;;;-4.40;99.90;;;;;;4934350;29;20414;-88
2022/04/03 03:06:25;;;;;;;5.93;2.95;;;-4.30;99.90;;;;;;4936066;29;20438;-88
2022/04/03 03:08:53;;;;;;;5.18;2.92;;;-4.30;99.90;;;;;;4934294;29;20769;-88
2022/04/03 03:11:21;;;;;;;7.03;3.17;;;-4.30;99.90;;;;;;4934243;29;20413;-87
2022/04/03 03:13:49;;;;;;;5.82;3.28;;;-4.20;99.90;;;;;;4934634;29;20486;-88
2022/04/03 03:16:16;;;;;;;6.25;3.75;;;-4.20;99.90;;;;;;4919355;29;20453;-87
2022/04/03 03:18:44;;;;;;;5.72;3.40;;;-4.20;99.90;;;;;;4931556;29;20446;-87
2022/04/03 03:21:12;;;;;;;7.13;3.97;;;-4.20;99.90;;;;;;4929863;29;20420;-88
2022/04/03 03:23:40;;;;;;;6.55;3.97;;;-4.20;99.90;;;;;;4918250;29;20485;-87
2022/04/03 03:26:08;;;;;;;6.53;3.80;;;-4.20;99.90;;;;;;4918421;29;20509;-88
2022/04/03 03:28:36;;;;;;;6.25;3.85;;;-4.20;99.90;;;;;;4918572;29;20939;-88
2022/04/03 03:31:05;;;;;;;8.05;4.50;;;-4.20;99.90;;;;;;4916543;29;20407;-87
2022/04/03 03:33:34;;;;;;;7.28;4.72;;;-4.20;99.90;;;;;;4934428;29;20398;-87
2022/04/03 03:36:02;;;;;;;7.07;4.20;;;-4.20;99.90;;;;;;4933748;29;20421;-88
2022/04/03 03:38:29;;;;;;;8.18;4.75;;;-4.30;99.90;;;;;;4918439;29;20410;-88
2022/04/03 03:40:57;;;;;;;8.57;4.95;;;-4.50;99.90;;;;;;4931051;29;20418;-87
2022/04/03 03:43:25;;;;;;;7.25;4.22;;;-4.40;99.90;;;;;;4917619;29;20410;-88
2022/04/03 03:45:53;;;;;;;8.95;5.30;;;-4.50;99.90;;;;;;4934838;29;20505;-87
2022/04/03 03:48:21;;;;;;;8.75;5.10;;;-4.30;99.90;;;;;;4931694;29;20422;-87
2022/04/03 03:50:49;;;;;;;8.30;5.05;;;-4.40;99.90;;;;;;4934151;29;20409;-87
2022/04/03 03:53:16;;;;;;;8.75;5.10;;;-4.50;99.90;;;;;;4932632;29;20409;-87
2022/04/03 03:55:44;;;;;;;10.02;5.55;;;-4.50;99.90;;;;;;4940082;29;20495;-88
2022/04/03 03:58:12;;;;;;;10.02;5.80;;;-4.50;99.90;;;;;;4934981;29;20981;-88
2022/04/03 04:00:39;;;;;;;8.48;5.53;;;-4.50;99.90;;;;;;4933288;29;20420;-87
2022/04/03 04:03:08;;;;;;;10.25;6.18;;;-4.50;99.90;;;;;;4930570;29;20424;-88
2022/04/03 04:05:35;;;;;;;9.75;5.72;;;-4.50;99.90;;;;;;4926567;29;20746;-88
2022/04/03 04:08:04;;;;;;;11.13;6.00;;;-4.60;99.90;;;;;;4949565;28;20425;-87
2022/04/03 04:10:31;;;;;;;10.02;6.20;;;-4.40;99.90;;;;;;4929199;29;20413;-87
2022/04/03 04:12:59;;;;;;;10.77;5.95;;;-4.40;99.90;;;;;;4918999;29;20422;-88
2022/04/03 04:15:28;;;;;;;11.15;5.68;;;-4.40;99.90;;;;;;4928001;29;20884;-87
2022/04/03 04:17:55;;;;;;;10.13;5.70;;;-4.30;99.90;;;;;;4930027;29;20504;-87
2022/04/03 04:20:23;;;;;;;10.10;5.72;;;-4.30;99.90;;;;;;4927591;29;20437;-86
2022/04/03 04:22:54;;;;;;;10.05;5.78;;;-4.30;99.90;;;;;;4935629;29;20422;-87
2022/04/03 04:25:22;;;;;;;10.00;5.72;;;-4.50;99.90;;;;;;4929940;29;21456;-87
2022/04/03 04:27:49;;;;;;;11.10;5.68;;;-4.50;99.90;;;;;;4909710;29;20989;-87
2022/04/03 04:30:17;;;;;;;10.70;6.00;;;-4.50;99.90;;;;;;4930440;29;20400;-87
2022/04/03 04:32:45;;;;;;;9.32;5.03;;;-4.60;99.90;;;;;;4927725;29;20421;-87
2022/04/03 04:35:13;;;;;;;9.80;5.53;;;-4.50;99.90;;;;;;4945800;29;20414;-87
2022/04/03 04:37:41;;;;;;;10.45;6.13;;;-4.40;99.90;;;;;;4929118;29;20415;-86
2022/04/03 04:40:10;;;;;;;7.70;4.68;;;-4.30;99.90;;;;;;4910284;29;20456;-87
2022/04/03 04:42:38;;;;;;;9.02;4.93;;;-4.40;99.90;;;;;;4929302;29;20416;-87
2022/04/03 04:45:07;;;;;;;8.77;4.78;;;-4.50;99.90;;;;;;4928939;29;20420;-87
2022/04/03 04:47:38;;;;;;;8.23;4.25;;;-4.60;99.90;;;;;;4929629;29;20497;-87
2022/04/03 04:50:08;;;;;;;7.95;4.50;;;-4.50;99.90;;;;;;4950137;28;20543;-87
2022/04/03 04:52:37;;;;;;;7.38;4.45;;;-4.50;99.90;;;;;;4928198;29;20804;-87
2022/04/03 04:55:06;;;;;;;8.55;4.35;;;-4.60;99.90;;;;;;4931359;29;20402;-87
2022/04/03 04:57:38;;;;;;;5.82;3.63;;;-4.60;99.90;;;;;;4930947;29;20508;-86
2022/04/03 05:00:10;;;;;;;7.85;4.20;;;-4.60;99.90;;;;;;4948560;28;20415;-87
2022/04/03 05:02:40;;;;;;;6.30;3.90;;;-4.60;99.90;;;;;;4940103;29;20411;-87
2022/04/03 05:05:08;;;;;;;7.05;4.25;;;-4.60;99.90;;;;;;4929896;29;20409;-86
2022/04/03 05:07:36;;;;;;;10.10;4.80;;;-4.60;99.90;;;;;;4932482;29;20410;-86
2022/04/03 05:10:04;;;;;;;7.10;3.50;;;-4.60;99.90;;;;;;4932875;29;20406;-86
2022/04/03 05:12:37;;;;;;;5.65;3.70;;;-4.60;99.90;;;;;;4935235;29;20485;-86
2022/04/03 05:15:08;;;;;;;7.03;4.28;;;-4.60;99.90;;;;;;4930769;29;20416;-85
2022/04/03 05:17:36;;;;;;;7.13;4.03;;;-4.60;99.90;;;;;;4930126;29;20517;-86
2022/04/03 05:20:04;;;;;;;6.75;3.72;;;-4.50;99.90;;;;;;4925411;29;20410;-85
2022/04/03 05:22:31;;;;;;;6.72;3.50;;;-4.50;99.90;;;;;;4946226;29;20422;-85
2022/04/03 05:25:03;;;;;;;6.40;3.58;;;-4.40;99.90;;;;;;4925872;29;20409;-85
2022/04/03 05:27:32;;;;;;;4.82;3.45;;;-4.40;99.90;;;;;;4923274;29;20416;-85
2022/04/03 05:30:03;;;;;;;6.38;3.58;;;-4.30;99.90;;;;;;4941376;29;20446;-84
2022/04/03 05:32:32;;;;;;;6.20;3.53;;;-4.30;99.90;;;;;;4948483;28;20440;-85
2022/04/03 05:35:00;;;;;;;5.00;3.40;;;-4.30;99.90;;;;;;4928257;29;20422;-85
2022/04/03 05:37:28;;;;;;;4.80;3.20;;;-4.30;99.90;;;;;;4929497;29;20505;-86
2022/04/03 05:39:55;;;;;;;6.83;3.80;;;-4.20;99.90;;;;;;4927383;29;20405;-85
2022/04/03 05:42:23;;;;;;;5.80;3.38;;;-4.20;99.90;;;;;;4928092;29;20413;-85
2022/04/03 05:44:51;;;;;;;5.30;3.50;;;-4.20;99.90;;;;;;4928583;29;20493;-85
2022/04/03 05:47:19;;;;;;;5.75;3.28;;;-4.10;99.90;;;;;;4932242;29;20414;-84
2022/04/03 05:49:46;;;;;;;5.35;3.30;;;-4.10;99.90;;;;;;4932315;29;20489;-85
2022/04/03 05:52:14;;;;;;;6.07;3.43;;;-4.00;99.90;;;;;;4948876;29;20564;-85
2022/04/03 05:54:43;;;;;;;4.97;3.35;;;-4.00;99.90;;;;;;4935548;29;20442;-85
2022/04/03 05:57:10;;;;;;;5.63;3.38;;;-4.00;99.90;;;;;;4919931;29;20409;-85
2022/04/03 05:59:38;;;;;;;6.22;3.17;;;-3.90;99.90;;;;;;4934765;29;20478;-85
2022/04/03 06:02:06;;;;;;;6.55;3.58;;;-3.90;99.90;;;;;;4943062;29;20417;-85
2022/04/03 06:04:35;;;;;;;7.68;3.25;;;-3.90;99.90;;;;;;4935250;29;20785;-84
2022/04/03 06:07:03;;;;;;;5.47;3.25;;;-3.80;99.90;;;;;;4931936;29;20510;-85
2022/04/03 06:09:30;;;;;;;6.25;3.20;;;-3.70;99.90;;;;;;4936533;29;20553;-84
2022/04/03 06:11:58;;;;;;;7.20;3.17;;;-3.70;99.90;;;;;;4935808;29;20508;-85
2022/04/03 06:14:25;;;;;;;5.03;2.70;;;-3.70;99.90;;;;;;4930502;29;20764;-85
2022/04/03 06:16:53;;;;;;;4.15;2.67;;;-3.70;99.90;;;;;;4936637;29;20398;-85
2022/04/03 06:19:21;;;;;;;5.27;3.07;;;-3.60;99.90;;;;;;4935765;29;20418;-85
2022/04/03 06:21:49;;;;;;;4.47;2.57;;;-3.50;99.90;;;;;;4936101;29;20414;-84
2022/04/03 06:24:16;;;;;;;5.35;2.30;;;-3.50;99.90;;;;;;4933909;29;20443;-84
2022/04/03 06:26:44;;;;;;;4.57;2.50;;;-3.40;99.90;;;;;;4936519;29;20400;-84
2022/04/03 06:29:12;;;;;;;5.13;2.65;;;-3.40;99.90;;;;;;4935092;29;20469;-84
2022/04/03 06:31:40;;;;;;;3.92;2.63;;;-3.40;99.90;;;;;;4934391;29;20481;-85
2022/04/03 06:34:08;;;;;;;5.00;2.40;;;-3.30;99.90;;;;;;4934882;29;20482;-85
2022/04/03 06:36:36;;;;;;;4.50;2.60;;;-3.30;99.90;;;;;;4919165;29;21016;-85
2022/04/03 06:39:04;;;;;;;7.78;3.63;;;-3.30;99.90;;;;;;4935029;29;20437;-85
2022/04/03 06:41:32;;;;;;;4.53;2.70;;;-3.30;99.90;;;;;;4934632;29;20414;-84
2022/04/03 06:44:00;;;;;;;4.10;2.20;;;-3.20;99.90;;;;;;4931658;29;20405;-84
2022/04/03 06:46:28;;;;;;;5.60;3.03;;;-3.10;99.90;;;;;;4919011;29;20409;-84
2022/04/03 06:48:56;;;;;;;4.23;2.33;;;-3.10;99.90;;;;;;4935120;29;20411;-85
2022/04/03 06:51:23;;;;;;;4.28;2.13;;;-3.10;99.90;;;;;;4932130;29;20925;-84
2022/04/03 06:53:52;;;;;;;5.40;2.38;;;-3.00;99.90;;;;;;4931305;29;20511;-84
2022/04/03 06:56:19;;;;;;;3.80;2.35;;;-2.90;99.90;;;;;;4949032;29;20497;-84
2022/04/03 06:58:47;;;;;;;3.45;2.10;;;-2.80;99.90;;;;;;4934032;29;20916;-85
2022/04/03 07:01:15;;;;;;;4.35;2.47;;;-2.70;99.90;;;;;;4935797;29;20947;-84
2022/04/03 07:03:43;;;;;;;5.85;3.05;;;-2.60;99.90;;;;;;4914766;29;20871;-84
2022/04/03 07:06:11;;;;;;;3.97;2.50;;;-2.60;99.90;;;;;;4935227;29;20410;-84
2022/04/03 07:08:41;;;;;;;5.18;2.80;;;-2.60;99.90;;;;;;4934669;29;20440;-84
2022/04/03 07:11:09;;;;;;;5.40;2.80;;;-2.60;99.90;;;;;;4914325;29;20408;-83
2022/04/03 07:13:36;;;;;;;6.40;2.78;;;-2.60;99.90;;;;;;4918102;29;20410;-84
2022/04/03 07:16:05;;;;;;;5.10;2.50;;;-2.50;99.90;;;;;;4933495;29;20821;-84
2022/04/03 07:18:35;;;;;;;3.57;2.00;;;-2.50;99.90;;;;;;4933251;29;20461;-84
2022/04/03 07:21:04;;;;;;;4.00;2.05;;;-2.40;99.90;;;;;;4926778;29;20462;-84
2022/04/03 07:23:31;;;;;;;4.43;1.95;;;-2.40;99.90;;;;;;4933840;29;20416;-84
2022/04/03 07:25:59;;;;;;;4.47;1.92;;;-2.30;99.90;;;;;;4916878;29;20455;-85
2022/04/03 07:28:27;;;;;;;2.85;1.77;;;-2.30;99.90;;;;;;4935524;29;20390;-85
2022/04/03 07:30:54;;;;;;;3.28;1.90;;;-2.30;99.90;;;;;;4937096;29;20410;-83
2022/04/03 07:33:24;;;;;;;3.80;1.90;;;-2.30;99.90;;;;;;4931760;29;20500;-84
2022/04/03 07:35:52;;;;;;;4.72;1.80;;;-2.20;99.90;;;;;;4930566;29;20425;-84
2022/04/03 07:38:22;;;;;;;3.88;1.63;;;-2.20;99.90;;;;;;4932762;29;20901;-84
2022/04/03 07:40:50;;;;;;;5.23;1.70;;;-2.10;99.90;;;;;;4933888;29;20406;-84
2022/04/03 07:43:23;;;;;;;5.13;1.80;;;-2.00;99.90;;;;;;4948812;29;20422;-84
2022/04/03 07:45:51;;;;;;;2.70;1.60;;;-1.90;99.90;;;;;;4933560;29;20797;-84
2022/04/03 07:48:19;;;;;;;3.47;1.42;;;-1.90;99.90;;;;;;4916986;29;20932;-84
2022/04/03 07:50:51;;;;;;;3.05;1.60;;;-1.80;99.90;;;;;;4933849;29;20964;-84
2022/04/03 07:53:19;;;;;;;3.22;1.75;;;-1.80;99.90;;;;;;4933625;29;20509;-86
2022/04/03 07:55:48;;;;;;;2.87;1.50;;;-1.80;99.90;;;;;;4931407;29;20447;-85
2022/04/03 07:58:15;;;;;;;4.20;1.60;;;-1.60;99.90;;;;;;4933923;29;20402;-85
2022/04/03 08:00:44;;;;;;;3.60;1.60;;;-1.60;99.90;;;;;;4916126;29;20409;-85
2022/04/03 08:03:12;;;;;;;3.10;1.35;;;-1.60;99.90;;;;;;4931323;29;20424;-85
2022/04/03 08:05:39;;;;;;;2.90;1.30;;;-1.60;99.90;;;;;;4933506;29;20410;-85
2022/04/03 08:08:07;;;;;;;3.67;1.50;;;-1.50;99.90;;;;;;4932744;29;20485;-84
2022/04/03 08:10:36;;;;;;;4.57;1.40;;;-1.50;99.90;;;;;;4930541;29;20410;-85
2022/04/03 08:13:03;;;;;;;3.30;1.27;;;-1.40;99.90;;;;;;4940323;29;20897;-84
2022/04/03 08:15:31;;;;;;;1.95;1.10;;;-1.20;99.90;;;;;;4920193;29;20509;-84
2022/04/03 08:17:59;;;;;;;3.50;1.45;;;-1.10;99.90;;;;;;4905643;29;20511;-86
2022/04/03 08:20:27;;;;;;;2.42;1.38;;;-1.20;99.90;;;;;;4912293;29;20748;-84
2022/04/03 08:22:56;;;;;;;2.90;1.10;;;-1.30;99.90;;;;;;4912755;29;20499;-85
2022/04/03 08:25:27;;;;;;;4.13;1.30;;;-1.30;99.90;;;;;;4932361;29;20402;-86
2022/04/03 08:27:56;;;;;;;4.65;1.60;;;-1.20;99.90;;;;;;4934125;29;20401;-85
2022/04/03 08:30:30;;;;;;;2.83;1.20;;;-1.10;99.90;;;;;;4934611;29;20458;-85
2022/04/03 08:32:59;;;;;;;3.43;1.40;;;-1.00;99.90;;;;;;4930228;29;20409;-86
2022/04/03 08:35:28;;;;;;;4.00;1.42;;;-0.90;99.90;;;;;;4933014;29;20497;-85
2022/04/03 08:37:56;;;;;;;3.33;1.27;;;-0.90;99.90;;;;;;4934227;29;20907;-85
2022/04/03 08:40:26;;;;;;;2.75;1.40;;;-0.90;99.90;;;;;;4932711;29;20465;-85
2022/04/03 08:42:56;;;;;;;3.92;1.13;;;-0.70;99.90;;;;;;4932130;29;20437;-85
2022/04/03 08:45:24;;;;;;;3.17;1.20;;;-0.70;99.90;;;;;;4932938;29;20505;-86
2022/04/03 08:47:58;;;;;;;2.53;1.30;;;-0.50;99.90;;;;;;4941852;29;20458;-85
2022/04/03 08:50:36;;;;;;;3.60;1.30;;;-0.60;99.90;;;;;;4916718;29;20529;-87
2022/04/03 08:53:07;;;;;;;3.83;1.20;;;-0.70;99.90;;;;;;4915347;29;20459;-86
2022/04/03 08:55:35;;;;;;;2.40;1.20;;;-0.60;99.90;;;;;;4916426;29;20409;-85
2022/04/03 08:58:05;;;;;;;4.32;1.35;;;-0.50;99.90;;;;;;4928690;29;20402;-85
2022/04/03 09:00:33;;;;;;;2.88;1.48;;;-0.40;99.90;;;;;;4917862;29;20420;-85
2022/04/03 09:03:01;;;;;;;3.28;1.38;;;-0.30;99.90;;;;;;4924466;29;20418;-86
2022/04/03 09:05:38;;;;;;;2.92;1.10;;;-0.40;99.90;;;;;;4926096;29;20475;-86
2022/04/03 09:08:09;;;;;;;3.22;1.25;;;-0.40;99.90;;;;;;4927919;29;20410;-86
2022/04/03 09:10:41;;;;;;;3.30;1.27;;;-0.30;99.90;;;;;;4914191;29;20420;-86
2022/04/03 09:13:10;;;;;;;2.25;1.10;;;-0.30;99.90;;;;;;4912691;29;20414;-86
2022/04/03 09:15:38;;;;;;;2.88;1.45;;;-0.20;99.90;;;;;;4922671;29;20481;-86
2022/04/03 09:18:08;;;;;;;4.10;1.10;;;-0.10;99.90;;;;;;4927408;29;20407;-86
2022/04/03 09:20:37;;;;;;;2.70;1.30;;;-0.10;99.90;;;;;;4928715;29;20426;-85
2022/04/03 09:23:07;;;;;;;1.83;1.10;;;-0.20;99.90;;;;;;4935399;29;20497;-85
2022/04/03 09:25:38;;;;;;;3.45;1.15;;;0.00;99.90;;;;;;4950538;28;20414;-86
2022/04/03 09:28:17;;;;;;;2.70;1.23;;;0.10;99.90;;;;;;4929428;29;20415;-85
2022/04/03 09:30:49;;;;;;;2.30;1.00;;;0.10;99.90;;;;;;4927258;29;20406;-86
2022/04/03 09:33:20;;;;;;;3.15;1.10;;;0.00;99.90;;;;;;4931147;29;20445;-86
2022/04/03 09:36:01;;;;;;;2.50;1.13;;;0.00;99.90;;;;;;4933390;29;20669;-85
2022/04/03 09:38:35;;;;;;;2.90;1.20;;;0.00;99.90;;;;;;4919100;29;20399;-85
2022/04/03 09:41:06;;;;;;;2.28;1.17;;;-0.10;99.90;;;;;;4932532;29;20406;-86
2022/04/03 09:43:40;;;;;;;2.35;1.00;;;-0.10;99.90;;;;;;4935940;29;20409;-85
2022/04/03 09:46:13;;;;;;;3.45;1.02;;;0.00;99.90;;;;;;4934065;29;20434;-85
2022/04/03 09:48:43;;;;;;;2.60;0.80;;;0.10;99.90;;;;;;4942965;29;20432;-85
2022/04/03 09:51:21;;;;;;;3.17;1.00;;;0.20;99.90;;;;;;4935408;29;20516;-84
2022/04/03 09:54:01;;;;;;;1.85;0.90;;;0.20;99.90;;;;;;4925946;29;20494;-84
2022/04/03 09:56:34;;;;;;;2.40;1.20;;;0.30;99.90;;;;;;4926867;29;20501;-86
2022/04/03 09:59:04;;;;;;;2.42;0.90;;;0.30;99.90;;;;;;4911311;29;20422;-85
2022/04/03 10:01:42;;;;;;;2.60;1.00;;;0.40;99.90;;;;;;4929420;29;20404;-85
2022/04/03 10:04:14;;;;;;;2.78;1.00;;;0.40;99.90;;;;;;4933819;29;20445;-85
2022/04/03 10:06:43;;;;;;;1.77;1.00;;;0.50;99.90;;;;;;4915842;29;20457;-85
2022/04/03 10:09:15;;;;;;;2.60;1.00;;;0.50;99.90;;;;;;4917883;29;20497;-85
2022/04/03 10:11:43;;;;;;;3.97;0.98;;;0.60;99.90;;;;;;4929732;29;20415;-84
2022/04/03 10:14:11;;;;;;;3.35;1.10;;;0.50;99.90;;;;;;4931867;29;20418;-86
2022/04/03 10:16:57;;;;;;;2.70;1.10;;;0.60;99.90;;;;;;4928743;29;20437;-85
2022/04/03 10:19:26;;;;;;;2.65;1.10;;;0.80;99.90;;;;;;4939772;29;20412;-87
2022/04/03 10:21:55;;;;;;;2.40;1.17;;;0.80;99.90;;;;;;4944742;29;20916;-88
2022/04/03 10:24:24;;;;;;;3.57;1.20;;;0.90;99.90;;;;;;4911036;29;20992;-87
2022/04/03 10:27:08;;;;;;;2.10;1.10;;;0.90;99.90;;;;;;4925223;29;20830;-85
2022/04/03 10:29:38;;;;;;;3.38;1.00;;;0.90;99.90;;;;;;4919527;29;20465;-85
2022/04/03 10:32:07;;;;;;;2.65;1.10;;;1.00;99.90;;;;;;4930959;29;20414;-85
2022/04/03 10:34:49;;;;;;;3.55;1.20;;;1.00;99.90;;;;;;4943227;29;20437;-84
2022/04/03 10:37:40;;;;;;;1.90;0.93;;;1.20;99.90;;;;;;4932213;29;20532;-84
2022/04/03 10:40:16;;;;;;;3.88;1.33;;;1.30;99.90;;;;;;4948573;28;20414;-85
2022/04/03 10:42:55;;;;;;;3.77;1.30;;;1.60;99.90;;;;;;4942851;29;20437;-87
2022/04/03 10:45:27;;;;;;;2.67;1.10;;;1.40;99.90;;;;;;4928471;29;20433;-85
2022/04/03 10:48:22;;;;;;;4.13;1.00;;;1.60;99.90;;;;;;4919183;29;20397;-87
2022/04/03 10:51:02;;;;;;;2.47;1.00;;;1.70;99.90;;;;;;4929882;29;20396;-87
2022/04/03 10:53:41;;;;;;;1.77;1.10;;;1.70;99.90;;;;;;4934672;29;20465;-84
2022/04/03 10:56:21;;;;;;;2.38;1.10;;;1.80;99.90;;;;;;4933716;29;20424;-84
2022/04/03 10:58:52;;;;;;;2.58;1.08;;;1.80;99.90;;;;;;4939673;29;20439;-85
2022/04/03 11:01:31;;;;;;;1.42;1.00;;;1.90;99.90;;;;;;4930839;29;20411;-85
2022/04/03 11:04:00;;;;;;;2.73;1.00;;;1.90;99.90;;;;;;4928475;29;20421;-85
2022/04/03 11:06:34;;;;;;;3.08;1.00;;;1.90;99.90;;;;;;4934560;29;20541;-85
2022/04/03 11:09:10;;;;;;;2.58;0.90;;;2.10;99.90;;;;;;4918233;29;20410;-85
2022/04/03 11:11:59;;;;;;;1.70;0.90;;;2.00;99.90;;;;;;4933211;29;20746;-85
2022/04/03 11:14:55;;;;;;;3.00;1.00;;;2.10;99.90;;;;;;4926643;29;20414;-85
2022/04/03 11:17:50;;;;;;;1.73;1.00;;;2.30;99.90;;;;;;4918309;29;20410;-85
2022/04/03 11:20:36;;;;;;;2.75;0.90;;;2.00;99.90;;;;;;4930661;29;20441;-85
2022/04/03 11:23:05;;;;;;;2.70;0.90;;;2.50;99.90;;;;;;4944061;29;20420;-85
2022/04/03 11:25:33;;;;;;;2.20;1.02;;;2.60;99.90;;;;;;4933733;29;20488;-85
2022/04/03 11:28:02;;;;;;;2.60;1.08;;;2.70;99.90;;;;;;4916544;29;20496;-85
2022/04/03 11:30:31;;;;;;;2.70;0.80;;;2.40;99.90;;;;;;4933024;29;20410;-85
2022/04/03 11:33:00;;;;;;;2.25;0.93;;;2.60;99.90;;;;;;4932728;29;20406;-85
2022/04/03 11:35:39;;;;;;;1.40;0.90;;;2.90;99.90;;;;;;4932948;29;20393;-85
2022/04/03 11:38:09;;;;;;;2.22;1.00;;;2.90;99.90;;;;;;4937465;29;20403;-85
2022/04/03 11:40:40;;;;;;;2.88;0.90;;;2.90;99.90;;;;;;4932193;29;20473;-85
2022/04/03 11:43:16;;;;;;;1.90;0.80;;;3.00;99.90;;;;;;4943632;28;20471;-85
2022/04/03 11:45:52;;;;;;;1.50;0.87;;;2.90;99.00;;;;;;4931154;29;20493;-84
2022/04/03 11:48:23;;;;;;;1.67;0.85;;;3.00;99.90;;;;;;4932474;29;20939;-87
2022/04/03 11:51:05;;;;;;;1.50;0.85;;;3.10;99.90;;;;;;4929298;29;20996;-84
2022/04/03 11:53:32;;;;;;;2.50;0.90;;;3.20;99.90;;;;;;4933675;29;20424;-84
2022/04/03 11:56:07;;;;;;;2.90;1.20;;;3.40;98.60;;;;;;4917957;29;20909;-86
2022/04/03 11:58:49;;;;;;;1.77;1.00;;;3.40;98.30;;;;;;4933401;29;20410;-87
2022/04/03 12:01:28;;;;;;;2.35;1.00;;;3.40;99.40;;;;;;4934634;29;20420;-87
2022/04/03 12:04:00;;;;;;;1.98;1.00;;;3.60;98.50;;;;;;4934266;29;20449;-87
2022/04/03 12:06:31;;;;;;;2.00;0.80;;;3.70;99.90;;;;;;4933250;29;20440;-87
2022/04/03 12:09:04;;;;;;;3.33;0.80;;;3.80;98.30;;;;;;4939942;29;20424;-86
2022/04/03 12:11:32;;;;;;;2.47;0.88;;;3.70;98.60;;;;;;4927972;29;20426;-87
2022/04/03 12:14:01;;;;;;;1.95;0.90;;;4.00;98.10;;;;;;4916831;29;20936;-86
2022/04/03 12:16:34;;;;;;;1.63;0.90;;;3.90;97.40;;;;;;4929974;29;20413;-86
2022/04/03 12:19:03;;;;;;;3.17;1.10;;;4.10;99.10;;;;;;4934224;29;20469;-87
2022/04/03 12:21:38;;;;;;;2.20;1.10;;;4.20;99.60;;;;;;4948957;29;20469;-86
2022/04/03 12:24:10;;;;;;;2.90;1.00;;;4.40;98.10;;;;;;4911480;29;20414;-86
2022/04/03 12:26:50;;;;;;;2.17;0.82;;;4.40;98.70;;;;;;4928487;29;20405;-86
2022/04/03 12:29:19;;;;;;;1.70;0.77;;;4.30;98.50;;;;;;4932866;29;20442;-86
2022/04/03 12:32:08;;;;;;;2.20;1.00;;;4.30;96.30;;;;;;4916288;29;20413;-86
2022/04/03 12:34:38;;;;;;;2.72;0.90;;;4.60;99.40;;;;;;4917261;29;20422;-86
2022/04/03 12:37:06;;;;;;;1.30;0.90;;;4.70;98.30;;;;;;4940316;29;20417;-88
2022/04/03 12:39:46;;;;;;;1.48;0.90;;;4.30;97.20;;;;;;4933316;29;20889;-87
2022/04/03 12:42:32;;;;;;;2.03;1.00;;;4.10;97.20;;;;;;4928190;29;20399;-88
2022/04/03 12:45:11;;;;;;;1.50;0.90;;;4.20;98.20;;;;;;4913363;29;20432;-88
2022/04/03 12:47:44;;;;;;;2.40;1.00;;;4.60;98.80;;;;;;4921382;29;20512;-88
2022/04/03 12:50:24;;;;;;;1.70;0.95;;;4.50;97.60;;;;;;4925878;29;20803;-87
2022/04/03 12:52:57;;;;;;;2.40;1.05;;;4.70;97.60;;;;;;4917243;29;20584;-86
2022/04/03 12:55:28;;;;;;;1.65;1.00;;;4.60;96.70;;;;;;4934012;29;20413;-86
2022/04/03 13:01:12;;;;;;;2.60;1.10;;;4.60;97.30;;;;;;4936448;29;20445;-86
2022/04/03 13:03:52;;;;;;;2.35;0.85;;;4.80;97.10;;;;;;4935034;29;20414;-86
2022/04/03 13:06:30;;;;;;;2.17;1.00;;;4.40;95.10;;;;;;4936540;29;20417;-86